createdAt,value
2018-02-10T00:00:06.017Z,71.23
2018-02-10T00:02:33.849Z,66.75
2018-02-10T00:05:01.513Z,66.13
2018-02-10T00:07:29.138Z,65.43
2018-02-10T00:09:56.821Z,66.85
2018-02-10T00:12:24.437Z,63.47
2018-02-10T00:14:52.096Z,62.37
2018-02-10T00:17:20.352Z,66.00
2018-02-10T00:19:48.025Z,66.05
2018-02-10T00:22:27.324Z,65.97
2018-02-10T00:24:54.993Z,66.22
2018-02-10T00:27:22.625Z,68.17
2018-02-10T00:29:50.993Z,63.30
2018-02-10T00:32:18.673Z,66.83
2018-02-10T00:34:46.336Z,66.83
2018-02-10T00:37:14.120Z,67.43
2018-02-10T00:39:42.213Z,62.77
2018-02-10T00:42:10.645Z,67.03
2018-02-10T00:44:38.269Z,66.03
2018-02-10T00:47:06.121Z,66.30
2018-02-10T00:49:34.508Z,68.43
2018-02-10T00:52:02.944Z,65.87
2018-02-10T00:54:30.573Z,65.95
2018-02-10T00:56:58.210Z,68.43
2018-02-10T00:59:25.873Z,62.80
2018-02-10T01:01:54.097Z,59.90
2018-02-10T01:04:22.584Z,63.38
2018-02-10T01:06:50.210Z,66.87
2018-02-10T01:09:17.873Z,68.90
2018-02-10T01:11:45.545Z,66.10
2018-02-10T01:14:13.324Z,66.90
2018-02-10T01:16:40.985Z,71.03
2018-02-10T01:19:08.613Z,66.27
2018-02-10T01:21:36.285Z,63.80
2018-02-10T01:24:04.169Z,66.47
2018-02-10T01:26:31.833Z,65.90
2018-02-10T01:29:00.089Z,64.17
2018-02-10T01:31:27.750Z,61.10
2018-02-10T01:33:55.373Z,64.70
2018-02-10T01:36:23.076Z,67.10
2018-02-10T01:38:50.685Z,62.20
2018-02-10T01:41:19.109Z,67.53
2018-02-10T01:43:46.730Z,66.20
2018-02-10T01:46:14.414Z,61.70
2018-02-10T01:48:42.096Z,60.75
2018-02-10T01:51:09.788Z,68.87
2018-02-10T01:53:37.529Z,70.37
2018-02-10T01:56:05.777Z,65.68
2018-02-10T01:58:33.453Z,63.63
2018-02-10T02:01:01.117Z,63.33
2018-02-10T02:03:28.748Z,59.70
2018-02-10T02:05:56.444Z,63.67
2018-02-10T02:08:24.413Z,61.50
2018-02-10T02:10:52.042Z,64.70
2018-02-10T02:13:19.672Z,66.10
2018-02-10T02:15:48.117Z,67.23
2018-02-10T02:18:15.747Z,61.60
2018-02-10T02:20:43.369Z,58.08
2018-02-10T02:23:11.218Z,58.50
2018-02-10T02:25:39.070Z,61.37
2018-02-10T02:28:06.741Z,58.37
2018-02-10T02:30:34.405Z,63.87
2018-02-10T02:33:02.032Z,60.33
2018-02-10T02:35:29.696Z,63.47
2018-02-10T02:37:57.574Z,64.25
2018-02-10T02:40:25.245Z,59.38
2018-02-10T02:42:52.876Z,60.53
2018-02-10T02:45:20.497Z,61.67
2018-02-10T02:47:48.190Z,60.67
2018-02-10T02:50:15.817Z,62.17
2018-02-10T02:52:43.613Z,62.62
2018-02-10T02:55:12.270Z,63.63
2018-02-10T02:57:39.977Z,58.70
2018-02-10T03:00:07.604Z,63.63
2018-02-10T03:02:35.505Z,59.57
2018-02-10T03:05:03.164Z,57.75
2018-02-10T03:07:30.783Z,58.90
2018-02-10T03:09:58.454Z,61.20
2018-02-10T03:12:26.892Z,62.95
2018-02-10T03:14:55.325Z,61.83
2018-02-10T03:17:22.949Z,63.55
2018-02-10T03:19:50.573Z,60.53
2018-02-10T03:22:18.236Z,60.40
2018-02-10T03:24:45.900Z,59.57
2018-02-10T03:27:13.740Z,59.10
2018-02-10T03:29:41.361Z,62.45
2018-02-10T03:32:08.981Z,58.33
2018-02-10T03:34:36.637Z,60.03
2018-02-10T03:37:04.264Z,57.53
2018-02-10T03:39:31.928Z,58.93
2018-02-10T03:41:59.601Z,67.27
2018-02-10T03:44:27.224Z,58.05
2018-02-10T03:46:54.886Z,56.50
2018-02-10T03:49:22.507Z,59.93
2018-02-10T03:51:50.454Z,56.00
2018-02-10T03:54:18.250Z,61.10
2018-02-10T03:56:47.272Z,63.00
2018-02-10T03:59:14.893Z,63.10
2018-02-10T04:01:42.557Z,60.05
2018-02-10T04:04:10.172Z,59.40
2018-02-10T04:06:37.836Z,59.53
2018-02-10T04:09:05.492Z,60.95
2018-02-10T04:11:33.117Z,58.87
2018-02-10T04:14:00.930Z,63.43
2018-02-10T04:16:28.554Z,59.10
2018-02-10T04:18:56.208Z,55.70
2018-02-10T04:21:23.845Z,56.10
2018-02-10T04:23:51.512Z,56.58
2018-02-10T04:26:19.173Z,59.57
2018-02-10T04:28:46.893Z,58.00
2018-02-10T04:31:14.573Z,58.10
2018-02-10T04:33:42.226Z,60.07
2018-02-10T04:36:10.468Z,58.63
2018-02-10T04:38:38.133Z,53.57
2018-02-10T04:41:05.756Z,55.35
2018-02-10T04:43:33.381Z,55.12
2018-02-10T04:46:01.810Z,54.23
2018-02-10T04:48:29.445Z,57.78
2018-02-10T04:50:57.109Z,58.13
2018-02-10T04:53:24.911Z,57.97
2018-02-10T04:55:52.585Z,56.90
2018-02-10T04:58:20.214Z,58.67
2018-02-10T05:00:47.876Z,53.42
2018-02-10T05:03:15.574Z,57.30
2018-02-10T05:05:43.234Z,58.37
2018-02-10T05:08:10.856Z,56.47
2018-02-10T05:10:39.445Z,57.33
2018-02-10T05:13:07.112Z,58.22
2018-02-10T05:15:34.967Z,56.33
2018-02-10T05:18:02.638Z,58.15
2018-02-10T05:20:30.260Z,57.35
2018-02-10T05:22:58.649Z,63.85
2018-02-10T05:25:26.349Z,55.97
2018-02-10T05:27:54.126Z,59.77
2018-02-10T05:30:21.796Z,57.62
2018-02-10T05:32:49.731Z,59.08
2018-02-10T05:35:17.496Z,57.17
2018-02-10T05:37:45.189Z,62.47
2018-02-10T05:40:13.438Z,57.20
2018-02-10T05:42:41.100Z,56.33
2018-02-10T05:45:09.382Z,64.03
2018-02-10T05:47:37.070Z,59.43
2018-02-10T05:50:04.728Z,57.90
2018-02-10T05:52:33.162Z,54.03
2018-02-10T05:55:00.825Z,56.50
2018-02-10T05:57:28.513Z,54.47
2018-02-10T05:59:56.179Z,52.67
2018-02-10T06:02:23.805Z,56.17
2018-02-10T06:04:51.460Z,54.50
2018-02-10T06:07:19.088Z,55.40
2018-02-10T06:09:47.584Z,54.30
2018-02-10T06:12:16.000Z,54.07
2018-02-10T06:14:44.337Z,55.40
2018-02-10T06:17:12.142Z,54.73
2018-02-10T06:19:39.833Z,55.42
2018-02-10T06:22:07.461Z,56.83
2018-02-10T06:24:35.124Z,54.50
2018-02-10T06:27:02.744Z,56.70
2018-02-10T06:29:30.368Z,57.07
2018-02-10T06:31:59.024Z,55.80
2018-02-10T06:34:32.401Z,56.00
2018-02-10T06:37:00.368Z,59.57
2018-02-10T06:39:29.239Z,54.30
2018-02-10T06:41:56.930Z,57.20
2018-02-10T06:44:24.682Z,52.27
2018-02-10T06:46:52.345Z,50.77
2018-02-10T06:49:20.123Z,56.90
2018-02-10T06:51:47.801Z,54.80
2018-02-10T06:54:15.430Z,51.23
2018-02-10T06:56:43.100Z,50.80
2018-02-10T06:59:10.753Z,50.88
2018-02-10T07:01:38.409Z,50.22
2018-02-10T07:04:06.513Z,49.70
2018-02-10T07:06:35.081Z,50.57
2018-02-10T07:09:02.744Z,50.43
2018-02-10T07:11:30.385Z,47.83
2018-02-10T07:13:58.074Z,51.50
2018-02-10T07:16:26.671Z,50.10
2018-02-10T07:18:55.025Z,47.53
2018-02-10T07:21:22.655Z,48.63
2018-02-10T07:23:50.456Z,54.55
2018-02-10T07:26:18.902Z,52.92
2018-02-10T07:28:46.873Z,53.33
2018-02-10T07:31:14.510Z,52.70
2018-02-10T07:33:42.316Z,53.23
2018-02-10T07:36:10.761Z,52.10
2018-02-10T07:38:38.385Z,50.73
2018-02-10T07:41:06.728Z,50.87
2018-02-10T07:43:34.604Z,53.30
2018-02-10T07:46:02.860Z,53.00
2018-02-10T07:48:30.476Z,53.40
2018-02-10T07:50:58.119Z,53.77
2018-02-10T07:53:26.032Z,55.47
2018-02-10T07:55:53.705Z,52.93
2018-02-10T07:58:21.369Z,51.53
2018-02-10T08:00:49.025Z,52.90
2018-02-10T08:03:16.682Z,50.33
2018-02-10T08:05:44.306Z,49.63
2018-02-10T08:08:11.971Z,51.37
2018-02-10T08:10:39.807Z,52.92
2018-02-10T08:13:07.471Z,49.50
2018-02-10T08:15:35.114Z,47.87
2018-02-10T08:18:02.776Z,51.55
2018-02-10T08:20:30.407Z,49.37
2018-02-10T08:22:58.081Z,47.90
2018-02-10T08:25:25.704Z,49.90
2018-02-10T08:27:53.574Z,51.27
2018-02-10T08:30:21.233Z,52.18
2018-02-10T08:32:49.090Z,47.55
2018-02-10T08:35:16.789Z,47.83
2018-02-10T08:37:44.449Z,52.27
2018-02-10T08:40:12.105Z,49.50
2018-02-10T08:42:40.368Z,47.50
2018-02-10T08:45:08.437Z,50.33
2018-02-10T08:47:36.425Z,49.45
2018-02-10T08:50:04.457Z,50.85
2018-02-10T08:52:33.093Z,48.90
2018-02-10T08:55:01.948Z,51.30
2018-02-10T08:57:29.942Z,46.57
2018-02-10T08:59:58.006Z,48.97
2018-02-10T09:02:25.665Z,47.57
2018-02-10T09:04:53.672Z,49.53
2018-02-10T09:07:21.324Z,47.00
2018-02-10T09:09:49.972Z,49.75
2018-02-10T09:12:19.145Z,45.10
2018-02-10T09:14:47.612Z,47.70
2018-02-10T09:17:15.272Z,46.20
2018-02-10T09:19:43.484Z,47.17
2018-02-10T09:22:11.141Z,43.23
2018-02-10T09:24:39.937Z,50.95
2018-02-10T09:27:08.028Z,47.17
2018-02-10T09:29:36.685Z,48.97
2018-02-10T09:32:05.565Z,46.00
2018-02-10T09:34:33.224Z,44.60
2018-02-10T09:37:00.986Z,49.75
2018-02-10T09:39:29.660Z,47.97
2018-02-10T09:41:57.293Z,48.10
2018-02-10T09:44:26.809Z,46.40
2018-02-10T09:46:54.442Z,46.87
2018-02-10T09:49:22.869Z,44.88
2018-02-10T09:51:51.801Z,44.17
2018-02-10T09:54:20.849Z,47.63
2018-02-10T09:56:48.513Z,46.63
2018-02-10T09:59:16.173Z,45.87
2018-02-10T10:01:44.056Z,51.07
2018-02-10T10:04:12.524Z,48.63
2018-02-10T10:06:40.512Z,48.63
2018-02-10T10:09:08.194Z,45.87
2018-02-10T10:11:35.816Z,48.93
2018-02-10T10:14:03.520Z,45.43
2018-02-10T10:16:31.140Z,51.00
2018-02-10T10:18:59.332Z,51.50
2018-02-10T10:21:28.467Z,48.38
2018-02-10T10:23:57.704Z,48.25
2018-02-10T10:26:27.644Z,47.40
2018-02-10T10:28:55.268Z,40.37
2018-02-10T10:31:24.587Z,41.33
2018-02-10T10:33:53.532Z,42.27
2018-02-10T10:36:21.150Z,41.88
2018-02-10T10:38:49.364Z,41.40
2018-02-10T10:41:17.020Z,41.17
2018-02-10T10:43:44.830Z,39.33
2018-02-10T10:46:13.294Z,39.90
2018-02-10T10:48:40.949Z,37.50
2018-02-10T10:51:09.353Z,35.77
2018-02-10T10:53:36.993Z,37.30
2018-02-10T10:56:05.258Z,35.10
2018-02-10T10:58:33.631Z,36.30
2018-02-10T11:01:01.297Z,36.17
2018-02-10T11:03:28.948Z,37.43
2018-02-10T11:05:56.559Z,37.03
2018-02-10T11:08:25.053Z,38.80
2018-02-10T11:10:53.437Z,35.63
2018-02-10T11:13:21.061Z,38.83
2018-02-10T11:15:48.815Z,36.75
2018-02-10T11:18:16.577Z,38.85
2018-02-10T11:20:44.232Z,42.03
2018-02-10T11:23:11.889Z,36.37
2018-02-10T11:25:39.562Z,36.77
2018-02-10T11:28:07.320Z,35.50
2018-02-10T11:30:34.989Z,36.92
2018-02-10T11:33:02.647Z,37.87
2018-02-10T11:35:30.264Z,34.20
2018-02-10T11:37:58.064Z,38.00
2018-02-10T11:40:25.719Z,36.13
2018-02-10T11:42:54.376Z,36.00
2018-02-10T11:45:22.258Z,36.83
2018-02-10T11:47:50.108Z,36.63
2018-02-10T11:50:18.441Z,34.25
2018-02-10T11:52:46.109Z,36.53
2018-02-10T11:55:14.396Z,36.63
2018-02-10T11:57:42.097Z,33.10
2018-02-10T12:00:09.751Z,29.17
2018-02-10T12:02:37.415Z,30.77
2018-02-10T12:05:05.080Z,32.72
2018-02-10T12:07:32.758Z,30.80
2018-02-10T12:10:00.604Z,29.53
2018-02-10T12:12:28.267Z,31.93
2018-02-10T12:14:55.889Z,28.60
2018-02-10T12:17:23.549Z,28.93
2018-02-10T12:19:51.349Z,32.00
2018-02-10T12:22:19.729Z,31.50
2018-02-10T12:24:47.390Z,27.40
2018-02-10T12:27:15.013Z,30.00
2018-02-10T12:29:42.664Z,31.20
2018-02-10T12:32:11.050Z,30.50
2018-02-10T12:34:39.393Z,29.47
2018-02-10T12:37:07.008Z,30.33
2018-02-10T12:39:34.902Z,32.00
2018-02-10T12:42:02.555Z,28.75
2018-02-10T12:44:30.782Z,29.20
2018-02-10T12:46:58.437Z,32.33
2018-02-10T12:49:31.677Z,32.07
2018-02-10T12:51:59.330Z,28.70
2018-02-10T12:54:26.940Z,30.70
2018-02-10T12:56:54.588Z,29.50
2018-02-10T12:59:22.969Z,30.80
2018-02-10T13:01:50.690Z,31.90
2018-02-10T13:04:18.347Z,29.25
2018-02-10T13:06:46.219Z,31.25
2018-02-10T13:09:13.835Z,30.62
2018-02-10T13:11:41.498Z,31.93
2018-02-10T13:14:09.413Z,34.35
2018-02-10T13:16:37.264Z,33.80
2018-02-10T13:19:04.935Z,31.60
2018-02-10T13:21:32.556Z,32.77
2018-02-10T13:24:00.214Z,32.13
2018-02-10T13:26:28.552Z,33.13
2018-02-10T13:28:56.238Z,31.92
2018-02-10T13:31:24.065Z,30.97
2018-02-10T13:33:51.734Z,32.80
2018-02-10T13:36:20.897Z,31.70
2018-02-10T13:38:48.581Z,33.10
2018-02-10T13:41:16.248Z,31.45
2018-02-10T13:43:44.124Z,33.73
2018-02-10T13:46:11.866Z,31.93
2018-02-10T13:48:40.272Z,33.90
2018-02-10T13:51:08.708Z,25.52
2018-02-10T13:53:36.676Z,28.42
2018-02-10T13:56:04.345Z,28.80
2018-02-10T13:58:31.999Z,29.50
2018-02-10T14:00:59.668Z,27.33
2018-02-10T14:03:27.292Z,28.12
2018-02-10T14:05:55.981Z,28.13
2018-02-10T14:08:23.896Z,28.87
2018-02-10T14:10:51.556Z,30.17
2018-02-10T14:13:19.412Z,30.98
2018-02-10T14:15:47.029Z,30.43
2018-02-10T14:18:14.937Z,32.10
2018-02-10T14:20:42.600Z,26.77
2018-02-10T14:23:10.857Z,29.97
2018-02-10T14:25:38.517Z,30.20
2018-02-10T14:28:06.133Z,29.00
2018-02-10T14:30:34.562Z,28.38
2018-02-10T14:33:02.181Z,29.40
2018-02-10T14:35:29.833Z,28.07
2018-02-10T14:37:57.729Z,29.45
2018-02-10T14:40:25.385Z,28.48
2018-02-10T14:42:56.191Z,29.07
2018-02-10T14:45:23.841Z,29.53
2018-02-10T14:47:51.493Z,30.20
2018-02-10T14:50:19.585Z,29.27
2018-02-10T14:52:47.253Z,25.73
2018-02-10T14:55:14.876Z,29.50
2018-02-10T14:57:43.231Z,28.08
2018-02-10T15:00:10.849Z,27.30
2018-02-10T15:02:38.519Z,26.37
2018-02-10T15:05:06.137Z,24.93
2018-02-10T15:07:33.797Z,25.90
2018-02-10T15:10:01.427Z,28.58
2018-02-10T15:12:29.089Z,26.50
2018-02-10T15:14:57.505Z,25.98
2018-02-10T15:17:25.885Z,26.85
2018-02-10T15:19:54.320Z,25.00
2018-02-10T15:22:21.941Z,25.20
2018-02-10T15:24:49.597Z,26.53
2018-02-10T15:27:17.212Z,26.93
2018-02-10T15:29:56.573Z,28.07
2018-02-10T15:32:36.199Z,29.97
2018-02-10T15:35:03.856Z,30.00
2018-02-10T15:37:31.472Z,32.78
2018-02-10T15:39:59.125Z,30.93
2018-02-10T15:42:26.737Z,31.50
2018-02-10T15:44:55.898Z,31.60
2018-02-10T15:47:23.582Z,34.58
2018-02-10T15:49:51.448Z,35.70
2018-02-10T15:52:19.075Z,35.23
2018-02-10T15:54:46.693Z,29.57
2018-02-10T15:57:14.354Z,28.93
2018-02-10T15:59:42.787Z,29.77
2018-02-10T16:02:10.445Z,29.80
2018-02-10T16:04:38.061Z,27.73
2018-02-10T16:07:05.944Z,27.80
2018-02-10T16:09:33.560Z,26.73
2018-02-10T16:12:01.222Z,27.27
2018-02-10T16:14:29.057Z,25.17
2018-02-10T16:16:57.521Z,25.10
2018-02-10T16:19:25.141Z,23.07
2018-02-10T16:21:53.520Z,24.80
2018-02-10T16:24:21.941Z,25.57
2018-02-10T16:26:49.636Z,26.08
2018-02-10T16:29:17.252Z,27.43
2018-02-10T16:31:44.873Z,26.12
2018-02-10T16:34:13.308Z,27.50
2018-02-10T16:36:40.932Z,29.17
2018-02-10T16:39:08.588Z,26.73
2018-02-10T16:41:36.204Z,27.97
2018-02-10T16:44:03.853Z,26.90
2018-02-10T16:46:31.512Z,29.40
2018-02-10T16:48:59.163Z,28.57
2018-02-10T16:51:26.875Z,27.17
2018-02-10T16:53:55.421Z,28.67
2018-02-10T16:56:23.041Z,28.75
2018-02-10T16:58:50.696Z,26.60
2018-02-10T17:01:18.309Z,30.88
2018-02-10T17:03:45.973Z,28.77
2018-02-10T17:06:13.589Z,28.87
2018-02-10T17:08:41.241Z,31.50
2018-02-10T17:11:08.901Z,30.80
2018-02-10T17:13:36.533Z,27.60
2018-02-10T17:16:04.180Z,28.77
2018-02-10T17:18:31.797Z,29.27
2018-02-10T17:20:59.773Z,27.80
2018-02-10T17:23:27.386Z,28.50
2018-02-10T17:25:56.057Z,28.60
2018-02-10T17:28:25.217Z,29.60
2018-02-10T17:30:52.868Z,28.40
2018-02-10T17:33:20.656Z,29.87
2018-02-10T17:35:48.418Z,28.67
2018-02-10T17:38:16.061Z,30.63
2018-02-10T17:40:43.685Z,28.08
2018-02-10T17:43:12.099Z,29.97
2018-02-10T17:45:39.717Z,30.42
2018-02-10T17:48:07.368Z,28.00
2018-02-10T17:50:34.989Z,29.92
2018-02-10T17:53:02.654Z,31.05
2018-02-10T17:55:30.273Z,31.40
2018-02-10T17:57:57.891Z,33.27
2018-02-10T18:00:25.551Z,31.95
2018-02-10T18:02:53.161Z,31.20
2018-02-10T18:05:20.816Z,32.03
2018-02-10T18:07:48.433Z,29.63
2018-02-10T18:10:17.129Z,30.80
2018-02-10T18:12:45.509Z,30.27
2018-02-10T18:15:13.889Z,31.40
2018-02-10T18:17:42.317Z,32.67
2018-02-10T18:20:09.975Z,31.53
2018-02-10T18:22:37.632Z,31.40
2018-02-10T18:25:05.258Z,32.83
2018-02-10T18:27:33.674Z,34.53
2018-02-10T18:30:01.289Z,32.93
2018-02-10T18:32:28.949Z,33.10
2018-02-10T18:34:56.570Z,33.37
2018-02-10T18:37:24.180Z,33.37
2018-02-10T18:39:51.849Z,34.00
2018-02-10T18:42:19.638Z,34.30
2018-02-10T18:44:47.255Z,30.70
2018-02-10T18:47:14.917Z,32.30
2018-02-10T18:49:42.530Z,33.10
2018-02-10T18:52:10.152Z,31.47
2018-02-10T18:54:37.852Z,30.60
2018-02-10T18:57:05.477Z,34.37
2018-02-10T18:59:33.090Z,33.60
2018-02-10T19:02:01.041Z,31.77
2018-02-10T19:04:28.890Z,33.13
2018-02-10T19:06:56.776Z,33.45
2018-02-10T19:09:25.954Z,35.20
2018-02-10T19:11:53.568Z,35.45
2018-02-10T19:14:21.222Z,32.22
2018-02-10T19:16:48.837Z,36.83
2018-02-10T19:19:16.489Z,33.30
2018-02-10T19:21:44.733Z,33.70
2018-02-10T19:24:12.344Z,33.60
2018-02-10T19:26:40.720Z,39.57
2018-02-10T19:29:10.121Z,37.40
2018-02-10T19:31:38.337Z,35.65
2018-02-10T19:34:06.700Z,36.47
2018-02-10T19:36:34.313Z,42.00
2018-02-10T19:39:01.969Z,37.72
2018-02-10T19:41:29.628Z,35.90
2018-02-10T19:43:57.240Z,41.07
2018-02-10T19:46:25.069Z,35.50
2018-02-10T19:48:52.918Z,40.53
2018-02-10T19:51:20.532Z,38.67
2018-02-10T19:53:48.361Z,34.70
2018-02-10T19:56:16.194Z,36.70
2018-02-10T19:58:43.884Z,37.15
2018-02-10T20:01:11.509Z,45.93
2018-02-10T20:03:39.166Z,46.30
2018-02-10T20:06:07.008Z,38.47
2018-02-10T20:08:34.628Z,43.20
2018-02-10T20:11:02.282Z,39.43
2018-02-10T20:13:30.505Z,34.95
2018-02-10T20:15:58.597Z,36.07
2018-02-10T20:18:27.645Z,31.77
2018-02-10T20:20:55.290Z,46.60
2018-02-10T20:23:22.961Z,35.42
2018-02-10T20:25:50.617Z,32.07
2018-02-10T20:28:18.837Z,36.47
2018-02-10T20:30:47.056Z,37.38
2018-02-10T20:33:15.270Z,39.33
2018-02-10T20:35:43.258Z,34.53
2018-02-10T20:38:10.877Z,36.55
2018-02-10T20:40:38.533Z,35.17
2018-02-10T20:43:06.198Z,23.43
2018-02-10T20:45:33.857Z,33.15
2018-02-10T20:48:01.477Z,33.87
2018-02-10T20:50:29.097Z,34.50
2018-02-10T20:52:57.514Z,33.13
2018-02-10T20:55:25.279Z,35.87
2018-02-10T20:57:52.940Z,30.88
2018-02-10T21:00:20.585Z,33.73
2018-02-10T21:02:48.260Z,30.55
2018-02-10T21:05:15.937Z,37.83
2018-02-10T21:07:43.590Z,37.08
2018-02-10T21:10:11.205Z,35.28
2018-02-10T21:12:38.889Z,34.17
2018-02-10T21:15:06.504Z,44.47
2018-02-10T21:17:34.158Z,42.20
2018-02-10T21:20:01.774Z,34.65
2018-02-10T21:22:29.440Z,34.63
2018-02-10T21:24:57.101Z,34.93
2018-02-10T21:27:24.718Z,39.13
2018-02-10T21:29:52.373Z,37.27
2018-02-10T21:32:20.668Z,34.57
2018-02-10T21:34:48.329Z,33.53
2018-02-10T21:37:16.006Z,38.22
2018-02-10T21:39:43.619Z,37.50
2018-02-10T21:42:12.016Z,36.97
2018-02-10T21:44:40.430Z,35.40
2018-02-10T21:47:08.045Z,34.03
2018-02-10T21:49:35.699Z,35.67
2018-02-10T21:52:03.692Z,35.20
2018-02-10T21:54:32.357Z,35.90
2018-02-10T21:57:00.753Z,35.35
2018-02-10T21:59:28.404Z,34.83
2018-02-10T22:01:56.057Z,34.43
2018-02-10T22:04:23.704Z,33.97
2018-02-10T22:06:52.098Z,35.07
2018-02-10T22:09:20.525Z,35.80
2018-02-10T22:11:48.145Z,34.33
2018-02-10T22:14:15.796Z,33.27
2018-02-10T22:16:43.416Z,33.33
2018-02-10T22:19:11.073Z,32.67
2018-02-10T22:21:38.689Z,34.40
2018-02-10T22:24:06.346Z,34.43
2018-02-10T22:26:33.965Z,29.65
2018-02-10T22:29:01.624Z,32.47
2018-02-10T22:31:29.241Z,32.67
2018-02-10T22:33:56.893Z,31.70
2018-02-10T22:36:24.511Z,29.07
2018-02-10T22:38:52.172Z,30.48
2018-02-10T22:41:19.824Z,29.17
2018-02-10T22:43:47.489Z,31.53
2018-02-10T22:46:16.608Z,29.70
2018-02-10T22:48:44.989Z,30.62
2018-02-10T22:51:13.413Z,28.90
2018-02-10T22:53:41.029Z,28.75
2018-02-10T22:56:08.681Z,29.90
2018-02-10T22:58:36.288Z,28.10
2018-02-10T23:01:09.681Z,28.93
2018-02-10T23:03:37.302Z,28.00
2018-02-10T23:06:05.201Z,28.53
2018-02-10T23:08:32.817Z,29.52
2018-02-10T23:11:01.192Z,30.13
2018-02-10T23:13:28.841Z,32.00
2018-02-10T23:15:56.493Z,28.23
2018-02-10T23:18:24.697Z,29.90
2018-02-10T23:20:52.375Z,27.70
2018-02-10T23:23:20.025Z,27.83
2018-02-10T23:25:47.682Z,27.17
2018-02-10T23:28:15.333Z,31.30
2018-02-10T23:30:43.765Z,30.40
2018-02-10T23:33:11.418Z,28.50
2018-02-10T23:35:39.032Z,30.70
2018-02-10T23:38:06.697Z,30.50
2018-02-10T23:40:34.378Z,29.60
2018-02-10T23:43:03.081Z,29.50
2018-02-10T23:45:30.863Z,28.87
2018-02-10T23:47:58.621Z,30.47
2018-02-10T23:50:26.246Z,28.00
2018-02-10T23:52:53.910Z,29.50
2018-02-10T23:55:21.568Z,27.20
2018-02-10T23:57:49.365Z,29.77
